Pagina principală
METAR-TAF:

METAR-TAF

Aeroporturi :

Apia, Upolu, Samoa

Latitudine: 13-49S, longitudine: 172-00W, elevație: 5 m

Observații meteo curente

Raportul a fost făcut în urmă cu 44 de minute, la 17:00 UTC
Vânt calm
Temperatură 25°C
Umiditate 94%
Presiune 1011 hPa
Vizibilitate de 10 km sau mai mult
Nori puțini la o înălțime de 2200 picior
Nori fragmentați la o înălțime de 15000 picior

METAR: NSFA 211700Z 00000KT 9999 FEW022 BKN150 25/24 Q1011

Ora: 06:44 (17:44 UTC)

Prognoză

Raportul a fost făcut în urmă cu 40 de minute, la 17:04 UTC
Prognoză valabilă de la 21 ora 18 UTC la 22 ora 18 UTC
Vânt 5 kt de la Est
Vizibilitate de 10 km sau mai mult
Nori puțini la o înălțime de 2600 picior

TAF: NSFA 211704Z 2118/2218 08005KT 9999 FEW026

Observații și prognoze meteo pentru peste 4.000 de aeroporturi (rapoarte METAR și TAF).

Stațiile disponibile sunt reprezentate pe hartă prin puncte galbene și roșii.

Țineți indicatorul mouse-ului pe punctul dorit pentru a vedea denumirea stației.

Apoi, faceți clic pentru a vedea observațiile și prognozele meteorologice.

Pentru a schimba harta: Pentru mărire, faceți clic pe butoanele verzi cu cruce neagră; pentru micșorare, pe butonul verde cu o liniuță; pentru hărți învecinate, pe săgețile verzi.


METAR-TAF: